Pagrindinis puslapis
METAR-TAF:

METAR-TAF

Oro uostai :

Paso de los Libresas, Argentina

platuma: 29-41S, ilguma: 057-09W, Aukštis: 69 m

Dabartinis oras

Ataskaita buvo paskelbta 47 minutes, ne 21:00 UTC
Vėjas 13 kt iš Vakarų/Pietvakarių
Temperatūra 30°C
Drėgmė 46%
Slėgis 1008 hPa
Matomumas 10 km arba daugiau
Mažai debesys ne aukštis 2000 ft

METAR: SARL 122100Z 25013KT 9999 FEW020 30/17 Q1008

Laikas: 18:47 (21:47 UTC)


TAF: trūkstamas

Orai ataskaitas ir orų prognozės (METAR, TAF).

turimą stotys yra geltonos ir raudonos taškus žemėlapyje.

Perkelti pele per norėdami pamatyti stoties vardą.

Tada spustelėkite, norėdami matyti oro stebėjimo ir prognozės.

Norėdami pakeisti žemėlapį: spustelėkite ant žalios mygtukų su juodo kryžiaus žemyn,; žalią mygtuką su brūkšneliu, jei norite nutolinti; arba žalių rodyklių gretimoms žemėlapius.


METAR-TAF: